sensor_id;sensor_type;location;lat;lon;timestamp;temperature;humidity
22089;DHT22;11211;52.728;9.230;2022-12-24T00:01:29;12.20;90.30
22089;DHT22;11211;52.728;9.230;2022-12-24T00:03:55;12.30;90.10
22089;DHT22;11211;52.728;9.230;2022-12-24T00:06:23;12.40;89.80
22089;DHT22;11211;52.728;9.230;2022-12-24T00:08:50;12.50;89.70
22089;DHT22;11211;52.728;9.230;2022-12-24T00:11:18;12.50;90.20
22089;DHT22;11211;52.728;9.230;2022-12-24T00:13:45;12.50;89.40
22089;DHT22;11211;52.728;9.230;2022-12-24T00:16:12;12.50;89.20
22089;DHT22;11211;52.728;9.230;2022-12-24T00:18:38;12.50;89.50
22089;DHT22;11211;52.728;9.230;2022-12-24T00:21:05;12.50;89.30
22089;DHT22;11211;52.728;9.230;2022-12-24T00:23:32;12.60;89.50
22089;DHT22;11211;52.728;9.230;2022-12-24T00:25:59;12.60;89.20
22089;DHT22;11211;52.728;9.230;2022-12-24T00:28:26;12.60;89.20
22089;DHT22;11211;52.728;9.230;2022-12-24T00:30:53;12.50;89.40
22089;DHT22;11211;52.728;9.230;2022-12-24T00:33:20;12.60;89.40
22089;DHT22;11211;52.728;9.230;2022-12-24T00:35:49;12.60;89.20
22089;DHT22;11211;52.728;9.230;2022-12-24T00:38:16;12.60;89.30
22089;DHT22;11211;52.728;9.230;2022-12-24T00:40:43;12.60;89.20
22089;DHT22;11211;52.728;9.230;2022-12-24T00:43:09;12.50;89.40
22089;DHT22;11211;52.728;9.230;2022-12-24T00:45:37;12.60;89.40
22089;DHT22;11211;52.728;9.230;2022-12-24T00:48:04;12.60;89.10
22089;DHT22;11211;52.728;9.230;2022-12-24T00:50:31;12.60;89.20
22089;DHT22;11211;52.728;9.230;2022-12-24T00:52:58;12.50;89.40
22089;DHT22;11211;52.728;9.230;2022-12-24T00:55:24;12.50;89.70
22089;DHT22;11211;52.728;9.230;2022-12-24T00:57:51;12.50;89.90
22089;DHT22;11211;52.728;9.230;2022-12-24T01:00:18;12.50;89.80
22089;DHT22;11211;52.728;9.230;2022-12-24T01:02:46;12.50;89.50
22089;DHT22;11211;52.728;9.230;2022-12-24T01:05:13;12.60;89.50
22089;DHT22;11211;52.728;9.230;2022-12-24T01:07:41;12.60;89.10
22089;DHT22;11211;52.728;9.230;2022-12-24T01:10:09;12.60;89.20
22089;DHT22;11211;52.728;9.230;2022-12-24T01:12:37;12.50;89.40
22089;DHT22;11211;52.728;9.230;2022-12-24T01:15:04;12.50;89.70
22089;DHT22;11211;52.728;9.230;2022-12-24T01:17:32;12.40;89.90
22089;DHT22;11211;52.728;9.230;2022-12-24T01:20:00;12.40;90.00
22089;DHT22;11211;52.728;9.230;2022-12-24T01:22:27;12.30;90.00
22089;DHT22;11211;52.728;9.230;2022-12-24T01:24:53;12.30;90.00
22089;DHT22;11211;52.728;9.230;2022-12-24T01:27:20;12.30;90.10
22089;DHT22;11211;52.728;9.230;2022-12-24T01:29:47;12.20;90.10
22089;DHT22;11211;52.728;9.230;2022-12-24T01:32:13;12.30;90.10
22089;DHT22;11211;52.728;9.230;2022-12-24T01:34:40;12.30;90.10
22089;DHT22;11211;52.728;9.230;2022-12-24T01:37:08;12.40;90.10
22089;DHT22;11211;52.728;9.230;2022-12-24T01:39:35;12.40;90.00
22089;DHT22;11211;52.728;9.230;2022-12-24T01:42:01;12.40;90.00
22089;DHT22;11211;52.728;9.230;2022-12-24T01:44:47;12.40;89.90
22089;DHT22;11211;52.728;9.230;2022-12-24T01:47:19;12.40;90.00
22089;DHT22;11211;52.728;9.230;2022-12-24T01:49:49;12.40;90.00
22089;DHT22;11211;52.728;9.230;2022-12-24T01:52:20;12.40;89.90
22089;DHT22;11211;52.728;9.230;2022-12-24T01:54:50;12.50;90.00
22089;DHT22;11211;52.728;9.230;2022-12-24T01:57:20;12.40;89.80
22089;DHT22;11211;52.728;9.230;2022-12-24T01:59:50;12.40;89.90
22089;DHT22;11211;52.728;9.230;2022-12-24T02:02:19;12.50;89.90
22089;DHT22;11211;52.728;9.230;2022-12-24T02:04:52;12.40;90.00
22089;DHT22;11211;52.728;9.230;2022-12-24T02:07:22;12.40;90.00
22089;DHT22;11211;52.728;9.230;2022-12-24T02:09:51;12.40;90.00
22089;DHT22;11211;52.728;9.230;2022-12-24T02:12:18;12.30;90.00
22089;DHT22;11211;52.728;9.230;2022-12-24T02:14:45;12.30;90.10
22089;DHT22;11211;52.728;9.230;2022-12-24T02:17:17;12.30;90.10
22089;DHT22;11211;52.728;9.230;2022-12-24T02:20:16;12.30;90.10
22089;DHT22;11211;52.728;9.230;2022-12-24T02:23:06;12.30;90.10
22089;DHT22;11211;52.728;9.230;2022-12-24T02:25:54;12.30;90.00
22089;DHT22;11211;52.728;9.230;2022-12-24T02:28:32;12.30;90.10
22089;DHT22;11211;52.728;9.230;2022-12-24T02:31:04;12.30;90.10
22089;DHT22;11211;52.728;9.230;2022-12-24T02:33:35;12.30;90.10
22089;DHT22;11211;52.728;9.230;2022-12-24T02:36:07;12.30;90.10
22089;DHT22;11211;52.728;9.230;2022-12-24T02:38:39;12.30;90.10
22089;DHT22;11211;52.728;9.230;2022-12-24T02:41:10;12.30;90.10
22089;DHT22;11211;52.728;9.230;2022-12-24T02:43:43;12.30;90.10
22089;DHT22;11211;52.728;9.230;2022-12-24T02:46:15;12.30;90.10
22089;DHT22;11211;52.728;9.230;2022-12-24T02:48:43;12.30;90.20
22089;DHT22;11211;52.728;9.230;2022-12-24T02:51:12;12.30;90.20
22089;DHT22;11211;52.728;9.230;2022-12-24T02:53:39;12.20;90.10
22089;DHT22;11211;52.728;9.230;2022-12-24T02:56:33;12.20;90.10
22089;DHT22;11211;52.728;9.230;2022-12-24T02:59:25;12.20;90.20
22089;DHT22;11211;52.728;9.230;2022-12-24T03:02:00;12.20;90.30
22089;DHT22;11211;52.728;9.230;2022-12-24T03:04:40;12.20;90.30
22089;DHT22;11211;52.728;9.230;2022-12-24T03:07:16;12.20;90.30
22089;DHT22;11211;52.728;9.230;2022-12-24T03:10:01;12.20;90.30
22089;DHT22;11211;52.728;9.230;2022-12-24T03:12:32;12.10;90.40
22089;DHT22;11211;52.728;9.230;2022-12-24T03:15:01;12.10;90.40
22089;DHT22;11211;52.728;9.230;2022-12-24T03:17:30;12.10;90.30
22089;DHT22;11211;52.728;9.230;2022-12-24T03:20:00;12.10;90.30
22089;DHT22;11211;52.728;9.230;2022-12-24T03:22:27;12.10;90.30
22089;DHT22;11211;52.728;9.230;2022-12-24T03:24:56;12.10;90.40
22089;DHT22;11211;52.728;9.230;2022-12-24T03:27:24;12.10;90.40
22089;DHT22;11211;52.728;9.230;2022-12-24T03:29:52;12.10;90.40
22089;DHT22;11211;52.728;9.230;2022-12-24T03:32:23;12.10;90.40
22089;DHT22;11211;52.728;9.230;2022-12-24T03:34:51;12.10;90.40
22089;DHT22;11211;52.728;9.230;2022-12-24T03:37:18;12.10;90.50
22089;DHT22;11211;52.728;9.230;2022-12-24T03:39:45;12.10;90.50
22089;DHT22;11211;52.728;9.230;2022-12-24T03:42:11;12.10;90.50
22089;DHT22;11211;52.728;9.230;2022-12-24T03:44:38;12.10;90.50
22089;DHT22;11211;52.728;9.230;2022-12-24T03:47:05;12.10;90.50
22089;DHT22;11211;52.728;9.230;2022-12-24T03:49:31;12.10;90.50
22089;DHT22;11211;52.728;9.230;2022-12-24T03:51:59;12.10;90.50
22089;DHT22;11211;52.728;9.230;2022-12-24T03:54:26;12.10;90.50
22089;DHT22;11211;52.728;9.230;2022-12-24T03:56:52;12.10;90.60
22089;DHT22;11211;52.728;9.230;2022-12-24T03:59:19;12.10;90.60
22089;DHT22;11211;52.728;9.230;2022-12-24T04:01:46;12.20;90.50
22089;DHT22;11211;52.728;9.230;2022-12-24T04:04:12;12.20;90.50
22089;DHT22;11211;52.728;9.230;2022-12-24T04:06:39;12.20;90.50
22089;DHT22;11211;52.728;9.230;2022-12-24T04:09:07;12.30;90.30
22089;DHT22;11211;52.728;9.230;2022-12-24T04:11:34;12.50;90.00
22089;DHT22;11211;52.728;9.230;2022-12-24T04:14:00;12.60;89.50
22089;DHT22;11211;52.728;9.230;2022-12-24T04:16:27;12.70;89.20
22089;DHT22;11211;52.728;9.230;2022-12-24T04:18:53;12.80;89.00
22089;DHT22;11211;52.728;9.230;2022-12-24T04:21:20;12.80;88.80
22089;DHT22;11211;52.728;9.230;2022-12-24T04:23:47;12.80;88.80
22089;DHT22;11211;52.728;9.230;2022-12-24T04:26:15;12.80;88.70
22089;DHT22;11211;52.728;9.230;2022-12-24T04:28:42;12.90;88.50
22089;DHT22;11211;52.728;9.230;2022-12-24T04:31:12;12.80;88.30
22089;DHT22;11211;52.728;9.230;2022-12-24T04:33:39;12.90;88.00
22089;DHT22;11211;52.728;9.230;2022-12-24T04:36:07;12.90;87.80
22089;DHT22;11211;52.728;9.230;2022-12-24T04:38:34;12.90;87.90
22089;DHT22;11211;52.728;9.230;2022-12-24T04:41:02;12.90;88.10
22089;DHT22;11211;52.728;9.230;2022-12-24T04:43:31;12.90;87.80
22089;DHT22;11211;52.728;9.230;2022-12-24T04:46:03;12.90;87.90
22089;DHT22;11211;52.728;9.230;2022-12-24T04:48:30;12.90;87.70
22089;DHT22;11211;52.728;9.230;2022-12-24T04:50:57;13.00;87.40
22089;DHT22;11211;52.728;9.230;2022-12-24T04:53:25;13.00;87.50
22089;DHT22;11211;52.728;9.230;2022-12-24T04:55:52;13.00;87.70
22089;DHT22;11211;52.728;9.230;2022-12-24T04:58:19;13.00;87.80
22089;DHT22;11211;52.728;9.230;2022-12-24T05:00:47;12.90;87.90
22089;DHT22;11211;52.728;9.230;2022-12-24T05:03:13;13.00;87.20
22089;DHT22;11211;52.728;9.230;2022-12-24T05:05:40;12.90;88.10
22089;DHT22;11211;52.728;9.230;2022-12-24T05:08:06;12.90;87.90
22089;DHT22;11211;52.728;9.230;2022-12-24T05:10:33;13.00;87.70
22089;DHT22;11211;52.728;9.230;2022-12-24T05:13:00;12.90;88.00
22089;DHT22;11211;52.728;9.230;2022-12-24T05:15:26;13.00;87.60
22089;DHT22;11211;52.728;9.230;2022-12-24T05:17:54;12.90;87.00
22089;DHT22;11211;52.728;9.230;2022-12-24T05:20:22;13.00;87.30
22089;DHT22;11211;52.728;9.230;2022-12-24T05:22:49;12.90;87.40
22089;DHT22;11211;52.728;9.230;2022-12-24T05:25:36;13.00;87.90
22089;DHT22;11211;52.728;9.230;2022-12-24T05:28:21;12.90;87.80
22089;DHT22;11211;52.728;9.230;2022-12-24T05:30:47;12.90;87.90
22089;DHT22;11211;52.728;9.230;2022-12-24T05:33:15;13.00;87.90
22089;DHT22;11211;52.728;9.230;2022-12-24T05:35:42;12.90;87.50
22089;DHT22;11211;52.728;9.230;2022-12-24T05:38:08;12.90;87.30
22089;DHT22;11211;52.728;9.230;2022-12-24T05:40:35;13.00;87.40
22089;DHT22;11211;52.728;9.230;2022-12-24T05:43:02;13.00;87.40
22089;DHT22;11211;52.728;9.230;2022-12-24T05:45:28;13.00;87.60
22089;DHT22;11211;52.728;9.230;2022-12-24T05:47:55;12.90;87.30
22089;DHT22;11211;52.728;9.230;2022-12-24T05:50:23;12.90;87.30
22089;DHT22;11211;52.728;9.230;2022-12-24T05:52:49;12.90;87.10
22089;DHT22;11211;52.728;9.230;2022-12-24T05:55:16;12.90;86.70
22089;DHT22;11211;52.728;9.230;2022-12-24T05:57:43;13.00;87.50
22089;DHT22;11211;52.728;9.230;2022-12-24T06:00:10;12.90;87.10
22089;DHT22;11211;52.728;9.230;2022-12-24T06:02:37;12.90;86.40
22089;DHT22;11211;52.728;9.230;2022-12-24T06:05:04;12.90;87.60
22089;DHT22;11211;52.728;9.230;2022-12-24T06:07:32;13.00;85.90
22089;DHT22;11211;52.728;9.230;2022-12-24T06:09:58;13.00;85.30
22089;DHT22;11211;52.728;9.230;2022-12-24T06:12:25;13.00;85.70
22089;DHT22;11211;52.728;9.230;2022-12-24T06:14:52;13.00;85.60
22089;DHT22;11211;52.728;9.230;2022-12-24T06:17:19;13.00;84.70
22089;DHT22;11211;52.728;9.230;2022-12-24T06:19:46;13.10;84.50
22089;DHT22;11211;52.728;9.230;2022-12-24T06:22:13;13.10;84.50
22089;DHT22;11211;52.728;9.230;2022-12-24T06:24:41;13.10;84.50
22089;DHT22;11211;52.728;9.230;2022-12-24T06:27:07;13.10;84.40
22089;DHT22;11211;52.728;9.230;2022-12-24T06:29:34;13.10;84.60
22089;DHT22;11211;52.728;9.230;2022-12-24T06:32:00;13.10;84.40
22089;DHT22;11211;52.728;9.230;2022-12-24T06:34:27;13.10;84.40
22089;DHT22;11211;52.728;9.230;2022-12-24T06:36:54;13.10;84.30
22089;DHT22;11211;52.728;9.230;2022-12-24T06:39:20;13.10;84.30
22089;DHT22;11211;52.728;9.230;2022-12-24T06:41:48;13.10;84.20
22089;DHT22;11211;52.728;9.230;2022-12-24T06:44:15;13.10;84.40
22089;DHT22;11211;52.728;9.230;2022-12-24T06:46:41;13.10;84.20
22089;DHT22;11211;52.728;9.230;2022-12-24T06:49:08;13.10;84.30
22089;DHT22;11211;52.728;9.230;2022-12-24T06:51:35;13.10;84.30
22089;DHT22;11211;52.728;9.230;2022-12-24T06:54:08;13.10;84.20
22089;DHT22;11211;52.728;9.230;2022-12-24T06:56:37;13.10;84.30
22089;DHT22;11211;52.728;9.230;2022-12-24T06:59:06;13.10;84.40
22089;DHT22;11211;52.728;9.230;2022-12-24T07:01:32;13.20;84.30
22089;DHT22;11211;52.728;9.230;2022-12-24T07:03:59;13.10;84.30
22089;DHT22;11211;52.728;9.230;2022-12-24T07:06:27;13.10;84.30
22089;DHT22;11211;52.728;9.230;2022-12-24T07:08:54;13.10;84.40
22089;DHT22;11211;52.728;9.230;2022-12-24T07:11:22;13.20;84.30
22089;DHT22;11211;52.728;9.230;2022-12-24T07:13:50;13.10;84.30
22089;DHT22;11211;52.728;9.230;2022-12-24T07:16:18;13.10;84.40
22089;DHT22;11211;52.728;9.230;2022-12-24T07:18:45;13.10;84.40
22089;DHT22;11211;52.728;9.230;2022-12-24T07:21:12;13.10;84.40
22089;DHT22;11211;52.728;9.230;2022-12-24T07:23:39;13.20;84.50
22089;DHT22;11211;52.728;9.230;2022-12-24T07:26:06;13.20;84.40
22089;DHT22;11211;52.728;9.230;2022-12-24T07:28:33;13.20;84.50
22089;DHT22;11211;52.728;9.230;2022-12-24T07:30:59;13.20;84.40
22089;DHT22;11211;52.728;9.230;2022-12-24T07:33:27;13.10;84.60
22089;DHT22;11211;52.728;9.230;2022-12-24T07:35:58;13.20;84.50
22089;DHT22;11211;52.728;9.230;2022-12-24T07:38:26;13.10;84.50
22089;DHT22;11211;52.728;9.230;2022-12-24T07:40:52;13.10;85.30
22089;DHT22;11211;52.728;9.230;2022-12-24T07:43:19;13.10;84.60
22089;DHT22;11211;52.728;9.230;2022-12-24T07:45:46;13.10;84.70
22089;DHT22;11211;52.728;9.230;2022-12-24T07:48:12;13.10;84.70
22089;DHT22;11211;52.728;9.230;2022-12-24T07:50:40;13.10;84.70
22089;DHT22;11211;52.728;9.230;2022-12-24T07:53:07;13.10;84.60
22089;DHT22;11211;52.728;9.230;2022-12-24T07:55:34;13.10;84.60
22089;DHT22;11211;52.728;9.230;2022-12-24T07:58:01;13.10;84.70
22089;DHT22;11211;52.728;9.230;2022-12-24T08:00:27;13.10;84.70
22089;DHT22;11211;52.728;9.230;2022-12-24T08:02:54;13.10;84.50
22089;DHT22;11211;52.728;9.230;2022-12-24T08:05:21;13.10;84.50
22089;DHT22;11211;52.728;9.230;2022-12-24T08:07:49;13.10;84.60
22089;DHT22;11211;52.728;9.230;2022-12-24T08:10:16;13.10;84.40
22089;DHT22;11211;52.728;9.230;2022-12-24T08:12:42;13.10;84.40
22089;DHT22;11211;52.728;9.230;2022-12-24T08:15:10;13.10;84.30
22089;DHT22;11211;52.728;9.230;2022-12-24T08:17:50;13.10;84.40
22089;DHT22;11211;52.728;9.230;2022-12-24T08:20:17;13.10;84.40
22089;DHT22;11211;52.728;9.230;2022-12-24T08:22:44;13.10;84.40
22089;DHT22;11211;52.728;9.230;2022-12-24T08:25:12;13.10;84.40
22089;DHT22;11211;52.728;9.230;2022-12-24T08:27:38;13.10;84.20
22089;DHT22;11211;52.728;9.230;2022-12-24T08:30:06;13.20;84.20
22089;DHT22;11211;52.728;9.230;2022-12-24T08:32:33;13.20;84.10
22089;DHT22;11211;52.728;9.230;2022-12-24T08:35:00;13.20;84.00
22089;DHT22;11211;52.728;9.230;2022-12-24T08:37:27;13.20;84.00
22089;DHT22;11211;52.728;9.230;2022-12-24T08:39:54;13.20;83.80
22089;DHT22;11211;52.728;9.230;2022-12-24T08:42:22;13.20;83.80
22089;DHT22;11211;52.728;9.230;2022-12-24T08:44:50;13.20;84.70
22089;DHT22;11211;52.728;9.230;2022-12-24T08:47:17;13.20;83.70
22089;DHT22;11211;52.728;9.230;2022-12-24T08:49:43;13.20;83.80
22089;DHT22;11211;52.728;9.230;2022-12-24T08:52:10;13.20;83.80
22089;DHT22;11211;52.728;9.230;2022-12-24T08:54:37;13.20;83.70
22089;DHT22;11211;52.728;9.230;2022-12-24T08:57:03;13.20;83.80
22089;DHT22;11211;52.728;9.230;2022-12-24T08:59:32;13.20;84.20
22089;DHT22;11211;52.728;9.230;2022-12-24T09:01:58;13.20;83.70
22089;DHT22;11211;52.728;9.230;2022-12-24T09:04:26;13.20;83.80
22089;DHT22;11211;52.728;9.230;2022-12-24T09:06:52;13.30;83.80
22089;DHT22;11211;52.728;9.230;2022-12-24T09:09:19;13.30;83.80
22089;DHT22;11211;52.728;9.230;2022-12-24T09:11:45;13.30;83.70
22089;DHT22;11211;52.728;9.230;2022-12-24T09:14:12;13.30;83.80
22089;DHT22;11211;52.728;9.230;2022-12-24T09:16:40;13.30;83.70
22089;DHT22;11211;52.728;9.230;2022-12-24T09:19:07;13.40;83.70
22089;DHT22;11211;52.728;9.230;2022-12-24T09:21:33;13.40;83.70
22089;DHT22;11211;52.728;9.230;2022-12-24T09:24:03;13.40;83.80
22089;DHT22;11211;52.728;9.230;2022-12-24T09:26:29;13.40;83.60
22089;DHT22;11211;52.728;9.230;2022-12-24T09:28:57;13.40;83.70
22089;DHT22;11211;52.728;9.230;2022-12-24T09:31:26;13.40;83.80
22089;DHT22;11211;52.728;9.230;2022-12-24T09:33:54;13.40;83.90
22089;DHT22;11211;52.728;9.230;2022-12-24T09:36:21;13.50;83.90
22089;DHT22;11211;52.728;9.230;2022-12-24T09:38:48;13.50;84.40
22089;DHT22;11211;52.728;9.230;2022-12-24T09:41:23;13.50;84.60
22089;DHT22;11211;52.728;9.230;2022-12-24T09:43:55;13.50;84.50
22089;DHT22;11211;52.728;9.230;2022-12-24T09:46:27;13.60;84.50
22089;DHT22;11211;52.728;9.230;2022-12-24T09:49:02;13.60;84.50
22089;DHT22;11211;52.728;9.230;2022-12-24T09:51:34;13.60;84.50
22089;DHT22;11211;52.728;9.230;2022-12-24T09:54:05;13.70;84.40
22089;DHT22;11211;52.728;9.230;2022-12-24T09:56:39;13.70;84.40
22089;DHT22;11211;52.728;9.230;2022-12-24T09:59:12;13.70;84.50
22089;DHT22;11211;52.728;9.230;2022-12-24T10:01:39;13.70;84.90
22089;DHT22;11211;52.728;9.230;2022-12-24T10:04:11;13.70;84.80
22089;DHT22;11211;52.728;9.230;2022-12-24T10:06:44;13.70;85.00
22089;DHT22;11211;52.728;9.230;2022-12-24T10:09:18;13.70;85.00
22089;DHT22;11211;52.728;9.230;2022-12-24T10:11:53;13.70;85.30
22089;DHT22;11211;52.728;9.230;2022-12-24T10:14:29;13.70;85.10
22089;DHT22;11211;52.728;9.230;2022-12-24T10:17:10;13.80;85.50
22089;DHT22;11211;52.728;9.230;2022-12-24T10:19:45;13.80;84.80
22089;DHT22;11211;52.728;9.230;2022-12-24T10:22:20;13.80;85.60
22089;DHT22;11211;52.728;9.230;2022-12-24T10:24:50;13.80;86.00
22089;DHT22;11211;52.728;9.230;2022-12-24T10:27:24;13.80;86.80
22089;DHT22;11211;52.728;9.230;2022-12-24T10:29:58;13.80;85.70
22089;DHT22;11211;52.728;9.230;2022-12-24T10:32:30;13.80;85.60
22089;DHT22;11211;52.728;9.230;2022-12-24T10:35:05;13.90;85.50
22089;DHT22;11211;52.728;9.230;2022-12-24T10:37:33;13.90;85.20
22089;DHT22;11211;52.728;9.230;2022-12-24T10:40:02;13.90;85.80
22089;DHT22;11211;52.728;9.230;2022-12-24T10:42:37;13.90;85.10
22089;DHT22;11211;52.728;9.230;2022-12-24T10:45:09;13.90;84.80
22089;DHT22;11211;52.728;9.230;2022-12-24T10:47:40;13.90;85.10
22089;DHT22;11211;52.728;9.230;2022-12-24T10:50:15;13.90;86.30
22089;DHT22;11211;52.728;9.230;2022-12-24T10:52:46;13.90;86.00
22089;DHT22;11211;52.728;9.230;2022-12-24T10:55:21;13.90;86.80
22089;DHT22;11211;52.728;9.230;2022-12-24T10:57:59;13.90;85.90
22089;DHT22;11211;52.728;9.230;2022-12-24T11:00:26;13.90;85.00
22089;DHT22;11211;52.728;9.230;2022-12-24T11:03:07;13.90;85.20
22089;DHT22;11211;52.728;9.230;2022-12-24T11:05:37;14.00;84.90
22089;DHT22;11211;52.728;9.230;2022-12-24T11:08:08;14.00;84.80
22089;DHT22;11211;52.728;9.230;2022-12-24T11:10:41;13.90;86.90
22089;DHT22;11211;52.728;9.230;2022-12-24T11:13:21;13.90;85.40
22089;DHT22;11211;52.728;9.230;2022-12-24T11:15:51;13.90;85.40
22089;DHT22;11211;52.728;9.230;2022-12-24T11:18:24;13.90;84.90
22089;DHT22;11211;52.728;9.230;2022-12-24T11:20:52;14.00;85.60
22089;DHT22;11211;52.728;9.230;2022-12-24T11:23:19;14.00;85.30
22089;DHT22;11211;52.728;9.230;2022-12-24T11:25:49;14.00;86.60
22089;DHT22;11211;52.728;9.230;2022-12-24T11:28:20;14.00;86.00
22089;DHT22;11211;52.728;9.230;2022-12-24T11:31:03;14.10;85.70
22089;DHT22;11211;52.728;9.230;2022-12-24T11:33:30;14.10;86.00
22089;DHT22;11211;52.728;9.230;2022-12-24T11:36:06;14.10;86.40
22089;DHT22;11211;52.728;9.230;2022-12-24T11:38:37;14.10;86.20
22089;DHT22;11211;52.728;9.230;2022-12-24T11:41:07;14.20;85.90
22089;DHT22;11211;52.728;9.230;2022-12-24T11:43:39;14.30;85.90
22089;DHT22;11211;52.728;9.230;2022-12-24T11:46:20;14.20;85.80
22089;DHT22;11211;52.728;9.230;2022-12-24T11:48:48;14.20;87.30
22089;DHT22;11211;52.728;9.230;2022-12-24T11:51:30;14.20;85.90
22089;DHT22;11211;52.728;9.230;2022-12-24T11:54:01;14.30;86.00
22089;DHT22;11211;52.728;9.230;2022-12-24T11:56:34;14.30;86.10
22089;DHT22;11211;52.728;9.230;2022-12-24T11:59:08;14.30;86.00
22089;DHT22;11211;52.728;9.230;2022-12-24T12:01:45;14.30;85.90
22089;DHT22;11211;52.728;9.230;2022-12-24T12:04:16;14.30;86.70
22089;DHT22;11211;52.728;9.230;2022-12-24T12:06:47;14.30;86.20
22089;DHT22;11211;52.728;9.230;2022-12-24T12:09:18;14.40;86.60
22089;DHT22;11211;52.728;9.230;2022-12-24T12:11:49;14.30;87.30
22089;DHT22;11211;52.728;9.230;2022-12-24T12:14:20;14.40;87.00
22089;DHT22;11211;52.728;9.230;2022-12-24T12:16:50;14.40;86.70
22089;DHT22;11211;52.728;9.230;2022-12-24T12:19:37;14.40;87.00
22089;DHT22;11211;52.728;9.230;2022-12-24T12:22:20;14.40;86.20
22089;DHT22;11211;52.728;9.230;2022-12-24T12:24:51;14.50;86.20
22089;DHT22;11211;52.728;9.230;2022-12-24T12:27:26;14.50;86.00
22089;DHT22;11211;52.728;9.230;2022-12-24T12:29:56;14.50;86.20
22089;DHT22;11211;52.728;9.230;2022-12-24T12:32:27;14.50;86.30
22089;DHT22;11211;52.728;9.230;2022-12-24T12:35:03;14.50;86.30
22089;DHT22;11211;52.728;9.230;2022-12-24T12:37:40;14.50;86.40
22089;DHT22;11211;52.728;9.230;2022-12-24T12:40:12;14.50;86.30
22089;DHT22;11211;52.728;9.230;2022-12-24T12:42:43;14.60;86.30
22089;DHT22;11211;52.728;9.230;2022-12-24T12:45:24;14.60;86.30
22089;DHT22;11211;52.728;9.230;2022-12-24T12:48:10;14.60;86.40
22089;DHT22;11211;52.728;9.230;2022-12-24T12:50:43;14.60;86.40
22089;DHT22;11211;52.728;9.230;2022-12-24T12:53:26;14.60;86.20
22089;DHT22;11211;52.728;9.230;2022-12-24T12:56:00;14.60;86.70
22089;DHT22;11211;52.728;9.230;2022-12-24T12:58:29;14.60;86.40
22089;DHT22;11211;52.728;9.230;2022-12-24T13:01:00;14.60;86.70
22089;DHT22;11211;52.728;9.230;2022-12-24T13:07:05;14.60;86.90
22089;DHT22;11211;52.728;9.230;2022-12-24T13:10:00;14.70;86.50
22089;DHT22;11211;52.728;9.230;2022-12-24T13:12:46;14.70;86.60
22089;DHT22;11211;52.728;9.230;2022-12-24T13:15:47;14.70;86.60
22089;DHT22;11211;52.728;9.230;2022-12-24T13:18:41;14.70;86.60
22089;DHT22;11211;52.728;9.230;2022-12-24T13:21:13;14.70;86.50
22089;DHT22;11211;52.728;9.230;2022-12-24T13:23:41;14.70;86.60
22089;DHT22;11211;52.728;9.230;2022-12-24T13:26:11;14.70;86.60
22089;DHT22;11211;52.728;9.230;2022-12-24T13:28:39;14.70;86.60
22089;DHT22;11211;52.728;9.230;2022-12-24T13:31:25;14.70;86.30
22089;DHT22;11211;52.728;9.230;2022-12-24T13:33:58;14.70;86.60
22089;DHT22;11211;52.728;9.230;2022-12-24T13:37:02;14.80;86.30
22089;DHT22;11211;52.728;9.230;2022-12-24T13:40:10;14.70;86.40
22089;DHT22;11211;52.728;9.230;2022-12-24T13:43:07;14.80;86.40
22089;DHT22;11211;52.728;9.230;2022-12-24T13:45:47;14.80;86.30
22089;DHT22;11211;52.728;9.230;2022-12-24T13:48:27;14.80;86.80
22089;DHT22;11211;52.728;9.230;2022-12-24T13:50:57;14.90;87.10
22089;DHT22;11211;52.728;9.230;2022-12-24T13:53:27;14.90;87.40
22089;DHT22;11211;52.728;9.230;2022-12-24T13:56:02;14.80;87.10
22089;DHT22;11211;52.728;9.230;2022-12-24T13:58:30;14.80;87.30
22089;DHT22;11211;52.728;9.230;2022-12-24T14:01:00;14.90;87.60
22089;DHT22;11211;52.728;9.230;2022-12-24T14:03:29;14.90;87.50
22089;DHT22;11211;52.728;9.230;2022-12-24T14:05:58;14.90;87.20
22089;DHT22;11211;52.728;9.230;2022-12-24T14:08:34;14.90;87.10
22089;DHT22;11211;52.728;9.230;2022-12-24T14:14:38;15.00;87.10
22089;DHT22;11211;52.728;9.230;2022-12-24T14:17:10;14.90;87.10
22089;DHT22;11211;52.728;9.230;2022-12-24T14:19:41;14.90;87.30
22089;DHT22;11211;52.728;9.230;2022-12-24T14:22:19;14.90;87.30
22089;DHT22;11211;52.728;9.230;2022-12-24T14:24:52;14.90;87.30
22089;DHT22;11211;52.728;9.230;2022-12-24T14:27:24;14.90;87.30
22089;DHT22;11211;52.728;9.230;2022-12-24T14:29:59;14.90;87.30
22089;DHT22;11211;52.728;9.230;2022-12-24T14:32:33;14.90;87.60
22089;DHT22;11211;52.728;9.230;2022-12-24T14:35:06;14.90;87.70
22089;DHT22;11211;52.728;9.230;2022-12-24T14:37:34;14.90;87.90
22089;DHT22;11211;52.728;9.230;2022-12-24T14:40:00;14.90;87.90
22089;DHT22;11211;52.728;9.230;2022-12-24T14:42:33;14.90;87.90
22089;DHT22;11211;52.728;9.230;2022-12-24T14:45:12;14.90;88.20
22089;DHT22;11211;52.728;9.230;2022-12-24T14:47:46;14.90;88.10
22089;DHT22;11211;52.728;9.230;2022-12-24T14:50:34;14.80;88.20
22089;DHT22;11211;52.728;9.230;2022-12-24T14:53:11;14.80;88.30
22089;DHT22;11211;52.728;9.230;2022-12-24T14:55:42;14.80;88.40
22089;DHT22;11211;52.728;9.230;2022-12-24T14:58:22;14.80;88.40
22089;DHT22;11211;52.728;9.230;2022-12-24T15:00:53;14.80;88.40
22089;DHT22;11211;52.728;9.230;2022-12-24T15:03:21;14.80;88.50
22089;DHT22;11211;52.728;9.230;2022-12-24T15:05:51;14.80;88.50
22089;DHT22;11211;52.728;9.230;2022-12-24T15:08:22;14.80;88.40
22089;DHT22;11211;52.728;9.230;2022-12-24T15:10:52;14.80;88.40
22089;DHT22;11211;52.728;9.230;2022-12-24T15:13:24;14.90;88.40
22089;DHT22;11211;52.728;9.230;2022-12-24T15:15:54;14.90;88.50
22089;DHT22;11211;52.728;9.230;2022-12-24T15:18:24;14.80;88.40
22089;DHT22;11211;52.728;9.230;2022-12-24T15:20:53;14.90;88.50
22089;DHT22;11211;52.728;9.230;2022-12-24T15:23:25;14.90;88.20
22089;DHT22;11211;52.728;9.230;2022-12-24T15:26:10;14.90;88.20
22089;DHT22;11211;52.728;9.230;2022-12-24T15:28:39;14.90;88.00
22089;DHT22;11211;52.728;9.230;2022-12-24T15:31:11;14.90;88.20
22089;DHT22;11211;52.728;9.230;2022-12-24T15:33:38;14.90;88.30
22089;DHT22;11211;52.728;9.230;2022-12-24T15:36:06;14.90;88.20
22089;DHT22;11211;52.728;9.230;2022-12-24T15:38:35;14.90;88.20
22089;DHT22;11211;52.728;9.230;2022-12-24T15:41:07;14.90;88.00
22089;DHT22;11211;52.728;9.230;2022-12-24T15:43:38;14.90;87.90
22089;DHT22;11211;52.728;9.230;2022-12-24T15:46:07;15.00;87.90
22089;DHT22;11211;52.728;9.230;2022-12-24T15:48:34;15.00;87.70
22089;DHT22;11211;52.728;9.230;2022-12-24T15:51:04;15.00;87.60
22089;DHT22;11211;52.728;9.230;2022-12-24T15:53:34;15.00;87.40
22089;DHT22;11211;52.728;9.230;2022-12-24T15:56:04;15.10;87.20
22089;DHT22;11211;52.728;9.230;2022-12-24T15:58:33;15.10;87.20